createdAt,value
2023-04-23T00:00:48.882Z,99868.03
2023-04-23T00:03:21.137Z,99865.44
2023-04-23T00:05:54.363Z,99869.06
2023-04-23T00:08:27.300Z,99861.44
2023-04-23T00:10:59.179Z,99866.19
2023-04-23T00:13:31.011Z,99864.44
2023-04-23T00:16:02.905Z,99842.91
2023-04-23T00:18:34.452Z,99862.94
2023-04-23T00:21:05.803Z,99867.59
2023-04-23T00:23:38.553Z,99838.19
2023-04-23T00:26:09.838Z,99838.66
2023-04-23T00:28:41.138Z,99861.16
2023-04-23T00:31:12.456Z,99865.00
2023-04-23T00:33:43.738Z,99856.28
2023-04-23T00:36:15.025Z,99854.53
2023-04-23T00:38:46.308Z,99825.44
2023-04-23T00:41:18.588Z,99845.59
2023-04-23T00:43:52.412Z,99831.34
2023-04-23T00:46:25.646Z,99838.97
2023-04-23T00:48:57.349Z,99838.19
2023-04-23T00:51:29.277Z,99842.91
2023-04-23T00:54:00.586Z,99827.25
2023-04-23T00:56:33.299Z,99831.44
2023-04-23T00:59:04.911Z,99807.06
2023-04-23T01:01:36.366Z,99841.97
2023-04-23T01:04:09.545Z,99833.88
2023-04-23T01:06:41.632Z,99833.88
2023-04-23T01:09:13.905Z,99832.28
2023-04-23T01:11:46.987Z,99831.59
2023-04-23T01:14:18.270Z,99836.94
2023-04-23T01:16:49.910Z,99840.31
2023-04-23T01:19:21.456Z,99843.84
2023-04-23T01:21:53.476Z,99834.88
2023-04-23T01:24:24.795Z,99834.88
2023-04-23T01:26:56.047Z,99814.75
2023-04-23T01:29:27.482Z,99822.63
2023-04-23T01:32:00.242Z,99825.91
2023-04-23T01:34:32.087Z,99830.31
2023-04-23T01:37:04.307Z,99831.25
2023-04-23T01:39:37.008Z,99816.72
2023-04-23T01:42:08.420Z,99841.81
2023-04-23T01:44:39.966Z,99822.78
2023-04-23T01:47:11.680Z,99818.38
2023-04-23T01:49:43.367Z,99848.09
2023-04-23T01:52:14.780Z,99830.00
2023-04-23T01:54:46.050Z,99852.72
2023-04-23T01:57:23.836Z,99844.59
2023-04-23T02:00:08.425Z,99864.69
2023-04-23T02:02:41.282Z,99863.13
2023-04-23T02:05:16.346Z,99869.03
2023-04-23T02:07:50.529Z,99881.69
2023-04-23T02:10:22.333Z,99857.50
2023-04-23T02:12:53.646Z,99855.75
2023-04-23T02:15:25.129Z,99881.66
2023-04-23T02:17:56.570Z,99871.91
2023-04-23T02:20:27.866Z,99861.75
2023-04-23T02:22:59.181Z,99886.41
2023-04-23T02:25:32.254Z,99874.56
2023-04-23T02:28:06.256Z,99877.72
2023-04-23T02:30:37.862Z,99892.28
2023-04-23T02:33:09.127Z,99885.94
2023-04-23T02:35:40.853Z,99891.81
2023-04-23T02:38:12.324Z,99880.84
2023-04-23T02:40:43.713Z,99912.72
2023-04-23T02:43:15.009Z,99911.34
2023-04-23T02:45:46.280Z,99907.44
2023-04-23T02:48:18.020Z,99898.94
2023-04-23T02:50:49.472Z,99922.47
2023-04-23T02:53:20.785Z,99924.28
2023-04-23T02:55:52.053Z,99921.72
2023-04-23T02:58:23.405Z,99906.16
2023-04-23T03:00:55.594Z,99919.00
2023-04-23T03:03:31.714Z,99925.25
2023-04-23T03:06:03.688Z,99901.81
2023-04-23T03:08:35.019Z,99915.69
2023-04-23T03:11:06.362Z,99905.19
2023-04-23T03:13:37.729Z,99906.97
2023-04-23T03:16:09.305Z,99908.88
2023-04-23T03:18:40.642Z,99938.38
2023-04-23T03:21:12.066Z,99931.44
2023-04-23T03:23:43.340Z,99927.03
2023-04-23T03:26:14.748Z,99941.97
2023-04-23T03:28:46.289Z,99931.56
2023-04-23T03:31:17.719Z,99924.50
2023-04-23T03:33:49.145Z,99937.63
2023-04-23T03:36:20.437Z,99930.69
2023-04-23T03:38:55.156Z,99921.34
2023-04-23T03:41:26.435Z,99925.97
2023-04-23T03:43:57.710Z,99941.59
2023-04-23T03:46:29.005Z,99905.47
2023-04-23T03:49:00.329Z,99941.22
2023-04-23T03:51:31.873Z,99944.91
2023-04-23T03:54:03.182Z,99946.81
2023-04-23T03:56:34.479Z,99926.84
2023-04-23T03:59:05.789Z,99935.69
2023-04-23T04:01:37.119Z,99941.91
2023-04-23T04:04:08.599Z,99949.03
2023-04-23T04:06:40.682Z,99921.28
2023-04-23T04:09:12.070Z,99950.22
2023-04-23T04:11:43.348Z,99959.19
2023-04-23T04:14:14.801Z,99930.56
2023-04-23T04:16:46.120Z,99964.34
2023-04-23T04:19:17.544Z,99940.69
2023-04-23T04:21:49.093Z,99956.44
2023-04-23T04:24:21.578Z,99943.59
2023-04-23T04:26:53.948Z,99941.03
2023-04-23T04:29:26.449Z,99944.28
2023-04-23T04:31:58.158Z,99965.22
2023-04-23T04:34:29.492Z,99968.59
2023-04-23T04:37:00.755Z,99976.56
2023-04-23T04:39:32.749Z,99983.63
2023-04-23T04:42:06.557Z,99979.44
2023-04-23T04:44:37.942Z,99988.22
2023-04-23T04:47:09.792Z,99983.16
2023-04-23T04:49:41.171Z,99980.47
2023-04-23T04:52:12.489Z,99984.13
2023-04-23T04:54:44.061Z,99978.44
2023-04-23T04:57:15.527Z,99996.00
2023-04-23T04:59:46.815Z,99970.97
2023-04-23T05:02:18.322Z,99981.47
2023-04-23T05:04:49.838Z,99978.94
2023-04-23T05:07:21.102Z,100013.88
2023-04-23T05:09:52.421Z,100007.03
2023-04-23T05:12:23.731Z,100018.31
2023-04-23T05:14:55.007Z,100022.78
2023-04-23T05:17:26.317Z,100012.44
2023-04-23T05:19:57.799Z,99996.59
2023-04-23T05:22:29.250Z,100024.41
2023-04-23T05:25:00.578Z,100025.97
2023-04-23T05:27:31.896Z,100021.28
2023-04-23T05:30:05.829Z,100011.53
2023-04-23T05:32:38.087Z,100028.81
2023-04-23T05:35:09.684Z,100031.38
2023-04-23T05:37:41.066Z,100021.66
2023-04-23T05:40:13.346Z,100027.06
2023-04-23T05:42:44.631Z,100040.22
2023-04-23T05:45:15.961Z,100015.78
2023-04-23T05:47:47.352Z,100038.09
2023-04-23T05:50:19.148Z,100040.41
2023-04-23T05:52:50.622Z,100042.13
2023-04-23T05:55:23.833Z,100028.13
2023-04-23T05:57:55.189Z,100032.28
2023-04-23T06:00:26.584Z,100027.81
2023-04-23T06:02:58.140Z,100017.19
2023-04-23T06:05:29.826Z,100036.91
2023-04-23T06:08:01.263Z,100037.81
2023-04-23T06:10:32.605Z,100048.25
2023-04-23T06:13:03.989Z,100036.41
2023-04-23T06:15:35.304Z,100047.50
2023-04-23T06:18:06.798Z,100045.66
2023-04-23T06:20:38.178Z,100038.00
2023-04-23T06:23:09.455Z,100020.69
2023-04-23T06:25:40.779Z,100014.28
2023-04-23T06:28:12.040Z,100043.69
2023-04-23T06:30:43.306Z,100039.25
2023-04-23T06:33:14.711Z,100039.03
2023-04-23T06:35:46.819Z,100010.25
2023-04-23T06:38:19.116Z,100032.13
2023-04-23T06:40:50.573Z,100041.97
2023-04-23T06:43:22.063Z,100030.06
2023-04-23T06:45:53.418Z,100031.53
2023-04-23T06:48:26.461Z,100018.34
2023-04-23T06:50:58.204Z,100042.44
2023-04-23T06:53:29.464Z,100044.63
2023-04-23T06:56:00.726Z,100026.88
2023-04-23T06:58:32.287Z,100041.88
2023-04-23T07:01:07.429Z,100045.84
2023-04-23T07:03:38.931Z,100024.25
2023-04-23T07:06:11.142Z,100047.09
2023-04-23T07:08:43.510Z,100018.47
2023-04-23T07:11:14.834Z,100042.81
2023-04-23T07:13:46.161Z,100022.34
2023-04-23T07:16:19.216Z,100031.41
2023-04-23T07:18:51.766Z,100027.34
2023-04-23T07:21:23.104Z,100023.59
2023-04-23T07:23:56.739Z,100031.38
2023-04-23T07:26:28.213Z,100037.34
2023-04-23T07:28:59.882Z,100027.28
2023-04-23T07:31:31.348Z,100020.16
2023-04-23T07:34:03.207Z,100039.22
2023-04-23T07:36:34.815Z,100020.38
2023-04-23T07:39:06.209Z,100033.56
2023-04-23T07:41:37.645Z,100016.59
2023-04-23T07:44:09.088Z,99992.19
2023-04-23T07:46:40.537Z,100030.38
2023-04-23T07:49:11.890Z,100027.31
2023-04-23T07:51:43.308Z,100034.53
2023-04-23T07:54:14.834Z,100031.88
2023-04-23T07:56:46.131Z,100002.16
2023-04-23T07:59:17.403Z,99997.09
2023-04-23T08:01:48.701Z,100013.69
2023-04-23T08:04:20.468Z,99981.47
2023-04-23T08:06:52.449Z,99990.50
2023-04-23T08:09:23.810Z,100019.00
2023-04-23T08:11:55.339Z,100015.84
2023-04-23T08:14:26.628Z,99990.00
2023-04-23T08:16:57.895Z,100014.59
2023-04-23T08:19:32.152Z,100007.88
2023-04-23T08:22:03.905Z,100015.09
2023-04-23T08:24:35.184Z,100000.81
2023-04-23T08:27:06.499Z,99992.34
2023-04-23T08:29:37.863Z,100023.47
2023-04-23T08:32:09.217Z,100019.31
2023-04-23T08:34:40.631Z,100007.56
2023-04-23T08:37:23.129Z,100023.31
2023-04-23T08:40:01.712Z,100017.09
2023-04-23T08:42:50.922Z,100002.13
2023-04-23T08:45:23.316Z,100003.56
2023-04-23T08:48:02.648Z,100005.72
2023-04-23T08:50:35.678Z,99992.38
2023-04-23T08:53:07.976Z,100017.78
2023-04-23T08:55:39.922Z,100008.00
2023-04-23T08:58:11.541Z,100016.63
2023-04-23T09:00:43.452Z,99993.75
2023-04-23T09:03:16.961Z,100008.56
2023-04-23T09:05:48.558Z,99997.53
2023-04-23T09:08:22.680Z,100009.44
2023-04-23T09:10:57.549Z,99984.47
2023-04-23T09:13:31.593Z,99993.31
2023-04-23T09:16:05.068Z,99995.78
2023-04-23T09:18:37.737Z,99989.63
2023-04-23T09:21:10.756Z,99984.47
2023-04-23T09:23:43.195Z,99982.16
2023-04-23T09:26:22.147Z,99984.53
2023-04-23T09:28:53.479Z,99991.22
2023-04-23T09:31:24.887Z,99995.91
2023-04-23T09:33:56.360Z,99982.47
2023-04-23T09:36:28.279Z,99982.00
2023-04-23T09:38:59.675Z,99961.59
2023-04-23T09:41:31.314Z,99975.59
2023-04-23T09:44:02.659Z,99969.09
2023-04-23T09:46:42.138Z,99965.84
2023-04-23T09:49:14.347Z,99968.31
2023-04-23T09:51:47.473Z,99963.72
2023-04-23T09:54:22.533Z,99961.25
2023-04-23T09:57:00.130Z,99942.72
2023-04-23T09:59:46.672Z,99936.78
2023-04-23T10:02:20.140Z,99954.50
2023-04-23T10:04:58.393Z,99966.69
2023-04-23T10:07:35.204Z,99961.69
2023-04-23T10:10:07.452Z,99947.41
2023-04-23T10:12:53.664Z,99945.47
2023-04-23T10:15:27.228Z,99960.78
2023-04-23T10:17:59.272Z,99970.16
2023-04-23T10:20:31.022Z,99960.81
2023-04-23T10:23:02.984Z,99955.19
2023-04-23T10:25:36.296Z,99951.31
2023-04-23T10:28:11.642Z,99939.56
2023-04-23T10:30:44.399Z,99945.84
2023-04-23T10:33:29.100Z,99949.97
2023-04-23T10:36:02.345Z,99956.22
2023-04-23T10:38:34.963Z,99939.50
2023-04-23T10:41:08.157Z,99948.78
2023-04-23T10:43:40.534Z,99944.28
2023-04-23T10:46:39.379Z,99942.34
2023-04-23T10:49:16.284Z,99944.72
2023-04-23T10:54:22.355Z,99929.41
2023-04-23T10:56:59.653Z,99941.91
2023-04-23T10:59:32.943Z,99943.97
2023-04-23T11:02:09.582Z,99940.81
2023-04-23T11:04:58.267Z,99934.69
2023-04-23T11:07:33.215Z,99933.81
2023-04-23T11:10:14.934Z,99941.56
2023-04-23T11:12:46.336Z,99946.78
2023-04-23T11:15:19.184Z,99937.91
2023-04-23T11:17:59.469Z,99940.16
2023-04-23T11:20:30.956Z,99911.28
2023-04-23T11:23:02.354Z,99912.66
2023-04-23T11:25:35.600Z,99906.13
2023-04-23T11:28:08.107Z,99916.28
2023-04-23T11:30:39.562Z,99903.31
2023-04-23T11:33:10.905Z,99901.41
2023-04-23T11:35:42.448Z,99905.59
2023-04-23T11:38:13.706Z,99918.34
2023-04-23T11:40:48.337Z,99903.66
2023-04-23T11:43:20.897Z,99903.81
2023-04-23T11:45:52.276Z,99893.94
2023-04-23T11:48:23.890Z,99895.44
2023-04-23T11:50:55.491Z,99900.75
2023-04-23T11:53:26.926Z,99900.28
2023-04-23T11:55:59.611Z,99903.03
2023-04-23T11:58:30.957Z,99895.16
2023-04-23T12:01:02.563Z,99879.41
2023-04-23T12:03:34.265Z,99879.88
2023-04-23T12:06:06.540Z,99872.50
2023-04-23T12:08:40.308Z,99886.53
2023-04-23T12:11:11.884Z,99885.44
2023-04-23T12:13:45.180Z,99884.94
2023-04-23T12:16:16.603Z,99890.47
2023-04-23T12:18:53.810Z,99871.56
2023-04-23T12:21:26.397Z,99871.56
2023-04-23T12:23:58.430Z,99877.34
2023-04-23T12:26:31.222Z,99887.03
2023-04-23T12:29:02.598Z,99882.59
2023-04-23T12:31:33.957Z,99883.38
2023-04-23T12:34:09.957Z,99848.69
2023-04-23T12:36:46.040Z,99868.41
2023-04-23T12:39:31.323Z,99874.09
2023-04-23T12:42:04.761Z,99877.66
2023-04-23T12:44:37.685Z,99879.19
2023-04-23T12:47:11.426Z,99870.59
2023-04-23T12:49:43.898Z,99867.41
2023-04-23T12:52:16.111Z,99849.38
2023-04-23T12:54:56.067Z,99865.53
2023-04-23T12:57:27.876Z,99865.78
2023-04-23T12:59:59.191Z,99866.91
2023-04-23T13:02:31.197Z,99857.16
2023-04-23T13:05:02.768Z,99866.53
2023-04-23T13:07:34.070Z,99863.94
2023-04-23T13:10:06.210Z,99848.97
2023-04-23T13:12:37.578Z,99837.41
2023-04-23T13:15:09.243Z,99831.72
2023-04-23T13:17:41.266Z,99810.47
2023-04-23T13:20:12.657Z,99807.38
2023-04-23T13:22:44.094Z,99838.47
2023-04-23T13:25:15.519Z,99834.41
2023-04-23T13:27:46.905Z,99820.78
2023-04-23T13:30:18.186Z,99825.28
2023-04-23T13:32:49.520Z,99821.00
2023-04-23T13:35:20.930Z,99797.88
2023-04-23T13:37:52.296Z,99807.19
2023-04-23T13:40:23.695Z,99797.53
2023-04-23T13:42:55.074Z,99806.56
2023-04-23T13:45:26.465Z,99813.31
2023-04-23T13:47:57.891Z,99823.22
2023-04-23T13:50:29.311Z,99835.00
2023-04-23T13:53:00.650Z,99809.03
2023-04-23T13:55:32.523Z,99820.50
2023-04-23T13:58:04.756Z,99795.63
2023-04-23T14:00:36.150Z,99797.31
2023-04-23T14:03:08.499Z,99763.88
2023-04-23T14:05:39.800Z,99787.09
2023-04-23T14:08:12.880Z,99790.19
2023-04-23T14:10:44.290Z,99795.50
2023-04-23T14:13:15.602Z,99799.09
2023-04-23T14:15:46.899Z,99786.16
2023-04-23T14:18:18.385Z,99796.41
2023-04-23T14:20:49.849Z,99782.53
2023-04-23T14:23:23.941Z,99770.00
2023-04-23T14:26:03.105Z,99773.84
2023-04-23T14:28:50.580Z,99757.94
2023-04-23T14:31:21.934Z,99754.81
2023-04-23T14:33:55.968Z,99762.03
2023-04-23T14:36:27.375Z,99769.84
2023-04-23T14:39:04.604Z,99761.78
2023-04-23T14:41:36.149Z,99752.94
2023-04-23T14:44:07.667Z,99760.91
2023-04-23T14:46:39.003Z,99750.97
2023-04-23T14:49:10.846Z,99740.84
2023-04-23T14:51:42.532Z,99748.91
2023-04-23T14:54:13.815Z,99735.03
2023-04-23T14:56:45.460Z,99745.59
2023-04-23T14:59:16.899Z,99748.59
2023-04-23T15:01:48.416Z,99743.97
2023-04-23T15:04:20.062Z,99727.81
2023-04-23T15:06:51.519Z,99732.88
2023-04-23T15:09:22.831Z,99731.06
2023-04-23T15:11:54.128Z,99724.69
2023-04-23T15:14:31.650Z,99726.97
2023-04-23T15:17:03.055Z,99731.69
2023-04-23T15:19:34.398Z,99727.59
2023-04-23T15:22:05.731Z,99734.81
2023-04-23T15:24:36.987Z,99744.16
2023-04-23T15:27:08.281Z,99746.72
2023-04-23T15:29:39.801Z,99758.00
2023-04-23T15:32:12.059Z,99764.97
2023-04-23T15:34:43.407Z,99771.03
2023-04-23T15:37:15.584Z,99773.13
2023-04-23T15:39:46.895Z,99771.91
2023-04-23T15:42:21.052Z,99757.53
2023-04-23T15:44:55.907Z,99750.53
2023-04-23T15:47:27.221Z,99758.34
2023-04-23T15:49:58.513Z,99730.91
2023-04-23T15:52:29.956Z,99687.28
2023-04-23T15:55:01.348Z,99727.97
2023-04-23T15:57:32.706Z,99721.34
2023-04-23T16:00:05.216Z,99699.53
2023-04-23T16:02:37.804Z,99712.72
2023-04-23T16:05:09.839Z,99690.81
2023-04-23T16:07:41.289Z,99701.88
2023-04-23T16:10:12.682Z,99705.56
2023-04-23T16:12:45.737Z,99673.13
2023-04-23T16:15:17.116Z,99694.94
2023-04-23T16:17:48.854Z,99694.44
2023-04-23T16:20:20.256Z,99687.66
2023-04-23T16:22:51.739Z,99686.47
2023-04-23T16:25:23.448Z,99690.44
2023-04-23T16:27:56.336Z,99683.03
2023-04-23T16:30:30.452Z,99675.63
2023-04-23T16:33:01.860Z,99683.16
2023-04-23T16:35:33.329Z,99686.00
2023-04-23T16:38:04.637Z,99689.97
2023-04-23T16:40:35.918Z,99696.63
2023-04-23T16:43:07.266Z,99671.06
2023-04-23T16:45:39.792Z,99669.00
2023-04-23T16:48:13.945Z,99662.34
2023-04-23T16:50:45.279Z,99675.34
2023-04-23T16:53:16.922Z,99673.34
2023-04-23T16:55:48.544Z,99679.13
2023-04-23T16:58:22.399Z,99669.19
2023-04-23T17:00:53.670Z,99671.88
2023-04-23T17:03:25.242Z,99669.72
2023-04-23T17:06:09.897Z,99646.69
2023-04-23T17:08:41.490Z,99644.63
2023-04-23T17:11:13.116Z,99658.72
2023-04-23T17:13:44.464Z,99658.88
2023-04-23T17:16:15.827Z,99662.88
2023-04-23T17:18:47.517Z,99643.97
2023-04-23T17:21:19.265Z,99650.00
2023-04-23T17:23:50.759Z,99657.94
2023-04-23T17:26:22.099Z,99639.66
2023-04-23T17:28:53.434Z,99653.63
2023-04-23T17:31:24.922Z,99655.97
2023-04-23T17:33:57.453Z,99640.06
2023-04-23T17:36:28.836Z,99626.97
2023-04-23T17:39:00.211Z,99640.84
2023-04-23T17:41:31.579Z,99643.78
2023-04-23T17:44:03.954Z,99644.81
2023-04-23T17:46:35.325Z,99642.59
2023-04-23T17:49:07.935Z,99625.41
2023-04-23T17:51:39.618Z,99643.09
2023-04-23T17:54:11.064Z,99632.81
2023-04-23T17:56:42.416Z,99621.34
2023-04-23T17:59:13.884Z,99633.06
2023-04-23T18:01:45.553Z,99624.00
2023-04-23T18:04:17.966Z,99627.00
2023-04-23T18:06:49.477Z,99621.38
2023-04-23T18:09:20.859Z,99617.31
2023-04-23T18:11:52.356Z,99595.19
2023-04-23T18:14:23.830Z,99616.22
2023-04-23T18:16:55.624Z,99616.56
2023-04-23T18:19:26.940Z,99616.03
2023-04-23T18:22:02.081Z,99606.69
2023-04-23T18:24:33.427Z,99614.84
2023-04-23T18:27:04.777Z,99597.81
2023-04-23T18:29:36.038Z,99607.47
2023-04-23T18:32:07.401Z,99608.00
2023-04-23T18:34:40.563Z,99604.25
2023-04-23T18:37:32.196Z,99600.13
2023-04-23T18:40:04.598Z,99604.84
2023-04-23T18:42:35.968Z,99598.94
2023-04-23T18:45:08.302Z,99609.25
2023-04-23T18:47:49.858Z,99608.47
2023-04-23T18:50:54.750Z,99607.66
2023-04-23T18:53:26.265Z,99606.03
2023-04-23T18:55:57.616Z,99604.66
2023-04-23T18:58:30.262Z,99604.41
2023-04-23T19:01:01.684Z,99607.16
2023-04-23T19:03:33.148Z,99601.28
2023-04-23T19:06:07.857Z,99593.19
2023-04-23T19:08:39.342Z,99594.53
2023-04-23T19:11:10.969Z,99596.22
2023-04-23T19:13:42.342Z,99585.53
2023-04-23T19:16:16.166Z,99568.38
2023-04-23T19:18:47.816Z,99583.81
2023-04-23T19:21:19.359Z,99574.28
2023-04-23T19:23:51.710Z,99573.41
2023-04-23T19:26:23.606Z,99580.19
2023-04-23T19:28:55.814Z,99567.22
2023-04-23T19:31:28.671Z,99575.91
2023-04-23T19:34:00.078Z,99570.97
2023-04-23T19:36:32.453Z,99559.66
2023-04-23T19:39:04.055Z,99563.50
2023-04-23T19:41:35.546Z,99558.41
2023-04-23T19:44:06.867Z,99561.31
2023-04-23T19:46:38.284Z,99552.97
2023-04-23T19:49:09.642Z,99561.00
2023-04-23T19:51:41.635Z,99550.47
2023-04-23T19:54:12.913Z,99528.72
2023-04-23T19:56:44.258Z,99540.59
2023-04-23T19:59:20.628Z,99516.09
2023-04-23T20:01:51.950Z,99525.38
2023-04-23T20:04:23.353Z,99523.34
2023-04-23T20:06:54.686Z,99525.91
2023-04-23T20:09:25.950Z,99515.47
2023-04-23T20:11:57.543Z,99518.84
2023-04-23T20:14:29.623Z,99523.34
2023-04-23T20:17:01.063Z,99495.63
2023-04-23T20:19:33.125Z,99518.94
2023-04-23T20:22:04.495Z,99526.78
2023-04-23T20:24:38.026Z,99518.78
2023-04-23T20:27:09.370Z,99508.03
2023-04-23T20:29:41.158Z,99511.72
2023-04-23T20:32:13.155Z,99504.81
2023-04-23T20:34:44.510Z,99499.72
2023-04-23T20:37:21.227Z,99491.94
2023-04-23T20:39:53.630Z,99472.81
2023-04-23T20:42:25.710Z,99466.69
2023-04-23T20:44:57.591Z,99480.56
2023-04-23T20:47:28.919Z,99470.13
2023-04-23T20:50:00.263Z,99475.47
2023-04-23T20:52:31.610Z,99469.19
2023-04-23T20:55:03.346Z,99449.91
2023-04-23T20:57:34.657Z,99456.34
2023-04-23T21:00:11.465Z,99442.53
2023-04-23T21:02:43.105Z,99427.47
2023-04-23T21:05:14.692Z,99456.81
2023-04-23T21:07:46.179Z,99443.63
2023-04-23T21:10:17.545Z,99429.59
2023-04-23T21:12:49.356Z,99442.13
2023-04-23T21:15:20.709Z,99420.78
2023-04-23T21:17:52.020Z,99450.75
2023-04-23T21:20:23.396Z,99410.88
2023-04-23T21:22:54.778Z,99442.91
2023-04-23T21:25:26.686Z,99441.09
2023-04-23T21:27:58.538Z,99441.03
2023-04-23T21:30:51.250Z,99444.47
2023-04-23T21:33:24.509Z,99448.78
2023-04-23T21:35:55.791Z,99440.16
2023-04-23T21:38:27.056Z,99439.47
2023-04-23T21:40:58.663Z,99466.50
2023-04-23T21:43:31.383Z,99463.94
2023-04-23T21:46:02.834Z,99453.34
2023-04-23T21:48:34.180Z,99444.16
2023-04-23T21:51:05.722Z,99425.31
2023-04-23T21:53:37.429Z,99409.81
2023-04-23T21:56:08.756Z,99404.00
2023-04-23T21:58:40.235Z,99390.06
2023-04-23T22:01:11.800Z,99390.22
2023-04-23T22:03:46.507Z,99407.91
2023-04-23T22:06:18.471Z,99387.38
2023-04-23T22:08:51.002Z,99362.22
2023-04-23T22:11:22.519Z,99372.66
2023-04-23T22:13:53.790Z,99363.00
2023-04-23T22:16:28.616Z,99330.22
2023-04-23T22:19:00.719Z,99359.97
2023-04-23T22:21:32.813Z,99361.56
2023-04-23T22:24:04.542Z,99340.53
2023-04-23T22:26:36.437Z,99340.25
2023-04-23T22:29:08.424Z,99332.47
2023-04-23T22:31:39.746Z,99325.75
2023-04-23T22:34:11.204Z,99317.81
2023-04-23T22:36:43.082Z,99330.97
2023-04-23T22:39:14.406Z,99329.41
2023-04-23T22:41:45.692Z,99342.00
2023-04-23T22:44:17.010Z,99341.00
2023-04-23T22:46:48.426Z,99344.44
2023-04-23T22:49:19.971Z,99346.31
2023-04-23T22:51:51.312Z,99349.13
2023-04-23T22:54:22.605Z,99340.66
2023-04-23T22:56:54.206Z,99359.56
2023-04-23T22:59:25.780Z,99357.25
2023-04-23T23:01:57.160Z,99373.59
2023-04-23T23:04:28.521Z,99364.03
2023-04-23T23:06:59.924Z,99370.72
2023-04-23T23:09:32.342Z,99384.75
2023-04-23T23:12:04.880Z,99381.22
2023-04-23T23:14:37.806Z,99380.38
2023-04-23T23:17:09.278Z,99374.19
2023-04-23T23:19:41.185Z,99371.66
2023-04-23T23:22:12.838Z,99366.47
2023-04-23T23:24:44.195Z,99296.34
2023-04-23T23:27:15.530Z,99348.94
2023-04-23T23:29:46.816Z,99344.63
2023-04-23T23:32:18.288Z,99344.84
2023-04-23T23:34:49.848Z,99323.13
2023-04-23T23:37:21.469Z,99333.56
2023-04-23T23:39:52.732Z,99342.63
2023-04-23T23:42:24.030Z,99293.41
2023-04-23T23:44:55.332Z,99339.34
2023-04-23T23:47:26.818Z,99316.91
2023-04-23T23:49:58.128Z,99325.53
2023-04-23T23:52:29.435Z,99320.44
2023-04-23T23:55:00.834Z,99311.00
2023-04-23T23:57:32.187Z,99305.91
